sensor_id;sensor_type;location;lat;lon;timestamp;P1;durP1;ratioP1;P2;durP2;ratioP2
76105;SDS011;64832;45.274;5.880;2022-12-07T00:01:06;9.73;;;6.22;;
76105;SDS011;64832;45.274;5.880;2022-12-07T00:03:36;8.32;;;6.13;;
76105;SDS011;64832;45.274;5.880;2022-12-07T00:06:03;10.15;;;6.10;;
76105;SDS011;64832;45.274;5.880;2022-12-07T00:08:29;9.80;;;6.38;;
76105;SDS011;64832;45.274;5.880;2022-12-07T00:11:00;11.60;;;6.40;;
76105;SDS011;64832;45.274;5.880;2022-12-07T00:13:26;10.15;;;5.80;;
76105;SDS011;64832;45.274;5.880;2022-12-07T00:15:52;12.25;;;6.25;;
76105;SDS011;64832;45.274;5.880;2022-12-07T00:18:17;9.30;;;5.65;;
76105;SDS011;64832;45.274;5.880;2022-12-07T00:20:42;8.45;;;5.80;;
76105;SDS011;64832;45.274;5.880;2022-12-07T00:23:08;10.48;;;6.45;;
76105;SDS011;64832;45.274;5.880;2022-12-07T00:25:33;13.40;;;6.25;;
76105;SDS011;64832;45.274;5.880;2022-12-07T00:27:59;11.77;;;5.90;;
76105;SDS011;64832;45.274;5.880;2022-12-07T06:30:28;7.57;;;3.70;;
76105;SDS011;64832;45.274;5.880;2022-12-07T06:32:54;8.80;;;3.65;;
76105;SDS011;64832;45.274;5.880;2022-12-07T06:35:20;6.40;;;4.22;;
76105;SDS011;64832;45.274;5.880;2022-12-07T06:37:45;12.27;;;3.85;;
76105;SDS011;64832;45.274;5.880;2022-12-07T06:40:10;15.02;;;4.35;;
76105;SDS011;64832;45.274;5.880;2022-12-07T06:42:36;11.25;;;4.00;;
76105;SDS011;64832;45.274;5.880;2022-12-07T06:45:01;9.10;;;3.70;;
76105;SDS011;64832;45.274;5.880;2022-12-07T06:47:27;10.70;;;3.65;;
76105;SDS011;64832;45.274;5.880;2022-12-07T06:49:52;7.07;;;4.03;;
76105;SDS011;64832;45.274;5.880;2022-12-07T06:52:18;8.27;;;4.00;;
76105;SDS011;64832;45.274;5.880;2022-12-07T06:54:43;10.00;;;3.53;;
76105;SDS011;64832;45.274;5.880;2022-12-07T06:57:10;11.32;;;3.90;;
76105;SDS011;64832;45.274;5.880;2022-12-07T06:59:35;7.60;;;3.80;;
76105;SDS011;64832;45.274;5.880;2022-12-07T07:02:00;8.27;;;3.60;;
76105;SDS011;64832;45.274;5.880;2022-12-07T07:04:26;6.10;;;3.83;;
76105;SDS011;64832;45.274;5.880;2022-12-07T07:06:51;8.25;;;3.85;;
76105;SDS011;64832;45.274;5.880;2022-12-07T07:09:16;8.00;;;3.75;;
76105;SDS011;64832;45.274;5.880;2022-12-07T07:11:42;7.60;;;3.60;;
76105;SDS011;64832;45.274;5.880;2022-12-07T07:14:07;7.10;;;3.58;;
76105;SDS011;64832;45.274;5.880;2022-12-07T07:16:33;5.75;;;3.60;;
76105;SDS011;64832;45.274;5.880;2022-12-07T07:18:58;7.28;;;4.05;;
76105;SDS011;64832;45.274;5.880;2022-12-07T07:21:23;6.32;;;3.53;;
76105;SDS011;64832;45.274;5.880;2022-12-07T07:23:49;10.05;;;3.53;;
76105;SDS011;64832;45.274;5.880;2022-12-07T07:26:14;6.28;;;3.70;;
76105;SDS011;64832;45.274;5.880;2022-12-07T07:28:39;7.25;;;3.55;;
76105;SDS011;64832;45.274;5.880;2022-12-07T07:31:05;7.78;;;3.70;;
76105;SDS011;64832;45.274;5.880;2022-12-07T07:33:30;5.78;;;3.47;;
76105;SDS011;64832;45.274;5.880;2022-12-07T07:35:56;8.75;;;3.45;;
76105;SDS011;64832;45.274;5.880;2022-12-07T07:38:21;7.07;;;3.33;;
76105;SDS011;64832;45.274;5.880;2022-12-07T07:40:46;5.90;;;3.70;;
76105;SDS011;64832;45.274;5.880;2022-12-07T07:43:12;7.28;;;3.63;;
76105;SDS011;64832;45.274;5.880;2022-12-07T07:45:37;5.63;;;3.33;;
76105;SDS011;64832;45.274;5.880;2022-12-07T07:48:03;5.55;;;3.33;;
76105;SDS011;64832;45.274;5.880;2022-12-07T07:50:28;18.48;;;11.65;;
76105;SDS011;64832;45.274;5.880;2022-12-07T07:52:53;21.40;;;13.18;;
76105;SDS011;64832;45.274;5.880;2022-12-07T07:55:19;18.75;;;12.98;;
76105;SDS011;64832;45.274;5.880;2022-12-07T07:57:44;19.45;;;13.32;;
76105;SDS011;64832;45.274;5.880;2022-12-07T08:00:11;20.10;;;13.55;;
76105;SDS011;64832;45.274;5.880;2022-12-07T08:02:38;23.17;;;12.80;;
76105;SDS011;64832;45.274;5.880;2022-12-07T08:05:04;21.13;;;13.45;;
76105;SDS011;64832;45.274;5.880;2022-12-07T08:07:29;21.77;;;13.48;;
76105;SDS011;64832;45.274;5.880;2022-12-07T08:09:55;13.18;;;6.95;;
76105;SDS011;64832;45.274;5.880;2022-12-07T08:12:20;11.20;;;5.63;;
76105;SDS011;64832;45.274;5.880;2022-12-07T08:14:45;11.88;;;5.80;;
76105;SDS011;64832;45.274;5.880;2022-12-07T08:17:11;9.77;;;5.13;;
76105;SDS011;64832;45.274;5.880;2022-12-07T08:19:37;10.75;;;6.22;;
76105;SDS011;64832;45.274;5.880;2022-12-07T08:22:02;10.38;;;4.82;;
76105;SDS011;64832;45.274;5.880;2022-12-07T08:24:28;8.68;;;5.20;;
76105;SDS011;64832;45.274;5.880;2022-12-07T08:26:53;13.90;;;5.47;;
76105;SDS011;64832;45.274;5.880;2022-12-07T08:29:19;9.65;;;4.95;;
76105;SDS011;64832;45.274;5.880;2022-12-07T08:31:45;17.05;;;5.00;;
76105;SDS011;64832;45.274;5.880;2022-12-07T08:34:11;12.18;;;5.20;;
76105;SDS011;64832;45.274;5.880;2022-12-07T08:36:37;14.07;;;4.75;;
76105;SDS011;64832;45.274;5.880;2022-12-07T08:39:03;10.88;;;5.13;;
76105;SDS011;64832;45.274;5.880;2022-12-07T08:41:28;10.05;;;4.57;;
76105;SDS011;64832;45.274;5.880;2022-12-07T08:43:53;10.70;;;5.22;;
76105;SDS011;64832;45.274;5.880;2022-12-07T08:48:48;9.98;;;4.55;;
76105;SDS011;64832;45.274;5.880;2022-12-07T08:51:18;10.23;;;5.18;;
76105;SDS011;64832;45.274;5.880;2022-12-07T08:53:44;8.27;;;5.07;;
76105;SDS011;64832;45.274;5.880;2022-12-07T08:56:10;9.05;;;5.03;;
76105;SDS011;64832;45.274;5.880;2022-12-07T08:58:36;9.07;;;4.90;;
76105;SDS011;64832;45.274;5.880;2022-12-07T09:01:03;10.32;;;4.88;;
76105;SDS011;64832;45.274;5.880;2022-12-07T09:03:29;10.35;;;5.45;;
76105;SDS011;64832;45.274;5.880;2022-12-07T09:05:55;8.00;;;5.00;;
76105;SDS011;64832;45.274;5.880;2022-12-07T09:08:21;11.00;;;4.72;;
76105;SDS011;64832;45.274;5.880;2022-12-07T09:10:51;9.40;;;4.80;;
76105;SDS011;64832;45.274;5.880;2022-12-07T09:13:16;8.80;;;5.15;;
76105;SDS011;64832;45.274;5.880;2022-12-07T09:15:41;7.78;;;5.15;;
76105;SDS011;64832;45.274;5.880;2022-12-07T09:18:07;9.48;;;4.53;;
76105;SDS011;64832;45.274;5.880;2022-12-07T09:20:32;11.48;;;4.22;;
76105;SDS011;64832;45.274;5.880;2022-12-07T09:22:58;8.20;;;4.07;;
76105;SDS011;64832;45.274;5.880;2022-12-07T09:25:24;7.80;;;4.25;;
76105;SDS011;64832;45.274;5.880;2022-12-07T09:27:54;7.97;;;3.90;;
76105;SDS011;64832;45.274;5.880;2022-12-07T09:30:21;8.90;;;4.38;;
76105;SDS011;64832;45.274;5.880;2022-12-07T09:32:47;9.60;;;4.28;;
76105;SDS011;64832;45.274;5.880;2022-12-07T09:35:12;7.15;;;3.85;;
76105;SDS011;64832;45.274;5.880;2022-12-07T09:37:37;7.35;;;3.80;;
76105;SDS011;64832;45.274;5.880;2022-12-07T09:40:03;5.10;;;3.58;;
76105;SDS011;64832;45.274;5.880;2022-12-07T09:42:32;5.82;;;3.78;;
76105;SDS011;64832;45.274;5.880;2022-12-07T09:44:58;10.23;;;3.92;;
76105;SDS011;64832;45.274;5.880;2022-12-07T09:47:25;10.15;;;3.65;;
76105;SDS011;64832;45.274;5.880;2022-12-07T09:49:51;6.38;;;4.00;;
76105;SDS011;64832;45.274;5.880;2022-12-07T09:52:19;9.35;;;4.18;;
76105;SDS011;64832;45.274;5.880;2022-12-07T09:54:50;7.28;;;4.28;;
76105;SDS011;64832;45.274;5.880;2022-12-07T09:57:16;6.70;;;4.10;;
76105;SDS011;64832;45.274;5.880;2022-12-07T09:59:42;6.68;;;3.90;;
76105;SDS011;64832;45.274;5.880;2022-12-07T10:02:22;5.60;;;4.03;;
76105;SDS011;64832;45.274;5.880;2022-12-07T10:04:52;6.57;;;4.20;;
76105;SDS011;64832;45.274;5.880;2022-12-07T10:07:18;6.20;;;4.30;;
76105;SDS011;64832;45.274;5.880;2022-12-07T10:09:44;7.53;;;4.45;;
76105;SDS011;64832;45.274;5.880;2022-12-07T10:12:11;7.97;;;4.38;;
76105;SDS011;64832;45.274;5.880;2022-12-07T10:14:38;7.40;;;4.13;;
76105;SDS011;64832;45.274;5.880;2022-12-07T10:25:27;8.02;;;4.75;;
76105;SDS011;64832;45.274;5.880;2022-12-07T10:27:57;8.02;;;3.90;;
76105;SDS011;64832;45.274;5.880;2022-12-07T10:30:57;6.65;;;4.28;;
76105;SDS011;64832;45.274;5.880;2022-12-07T10:33:28;5.97;;;4.32;;
76105;SDS011;64832;45.274;5.880;2022-12-07T10:35:54;6.03;;;4.07;;
76105;SDS011;64832;45.274;5.880;2022-12-07T10:38:20;8.48;;;4.45;;
76105;SDS011;64832;45.274;5.880;2022-12-07T10:40:45;8.18;;;4.20;;
76105;SDS011;64832;45.274;5.880;2022-12-07T10:51:12;6.97;;;4.18;;
76105;SDS011;64832;45.274;5.880;2022-12-07T10:56:39;7.78;;;4.05;;
76105;SDS011;64832;45.274;5.880;2022-12-07T11:16:12;6.22;;;3.80;;
76105;SDS011;64832;45.274;5.880;2022-12-07T11:30:15;6.25;;;3.40;;
76105;SDS011;64832;45.274;5.880;2022-12-07T11:32:47;4.55;;;3.65;;
76105;SDS011;64832;45.274;5.880;2022-12-07T11:37:39;4.57;;;3.50;;
76105;SDS011;64832;45.274;5.880;2022-12-07T11:42:44;5.93;;;3.50;;
76105;SDS011;64832;45.274;5.880;2022-12-07T11:48:04;4.63;;;3.47;;
76105;SDS011;64832;45.274;5.880;2022-12-07T11:50:56;6.35;;;3.42;;
76105;SDS011;64832;45.274;5.880;2022-12-07T11:58:49;5.43;;;3.65;;
76105;SDS011;64832;45.274;5.880;2022-12-07T12:06:49;5.28;;;3.05;;
76105;SDS011;64832;45.274;5.880;2022-12-07T12:09:16;6.03;;;3.58;;
76105;SDS011;64832;45.274;5.880;2022-12-07T12:22:26;6.85;;;3.60;;
76105;SDS011;64832;45.274;5.880;2022-12-07T12:24:58;4.78;;;3.20;;
76105;SDS011;64832;45.274;5.880;2022-12-07T12:27:25;5.40;;;3.53;;
76105;SDS011;64832;45.274;5.880;2022-12-07T12:29:55;5.18;;;3.30;;
76105;SDS011;64832;45.274;5.880;2022-12-07T12:32:29;5.43;;;3.92;;
76105;SDS011;64832;45.274;5.880;2022-12-07T12:35:02;5.45;;;3.70;;
76105;SDS011;64832;45.274;5.880;2022-12-07T12:37:45;15.23;;;4.38;;
76105;SDS011;64832;45.274;5.880;2022-12-07T12:42:50;15.40;;;4.55;;
76105;SDS011;64832;45.274;5.880;2022-12-07T12:45:26;21.17;;;5.13;;
76105;SDS011;64832;45.274;5.880;2022-12-07T12:48:00;18.00;;;4.10;;
76105;SDS011;64832;45.274;5.880;2022-12-07T12:50:38;15.52;;;4.38;;
76105;SDS011;64832;45.274;5.880;2022-12-07T12:53:14;17.08;;;4.25;;
76105;SDS011;64832;45.274;5.880;2022-12-07T13:00:44;19.38;;;13.00;;
76105;SDS011;64832;45.274;5.880;2022-12-07T13:03:31;14.98;;;8.85;;
76105;SDS011;64832;45.274;5.880;2022-12-07T13:08:48;9.65;;;5.38;;
76105;SDS011;64832;45.274;5.880;2022-12-07T13:13:43;9.73;;;5.40;;
76105;SDS011;64832;45.274;5.880;2022-12-07T13:28:43;7.82;;;4.30;;
76105;SDS011;64832;45.274;5.880;2022-12-07T13:33:59;6.32;;;4.28;;
76105;SDS011;64832;45.274;5.880;2022-12-07T13:36:30;6.80;;;4.07;;
76105;SDS011;64832;45.274;5.880;2022-12-07T13:39:10;7.32;;;4.18;;
76105;SDS011;64832;45.274;5.880;2022-12-07T13:44:11;7.88;;;4.30;;
76105;SDS011;64832;45.274;5.880;2022-12-07T13:49:32;7.18;;;4.00;;
76105;SDS011;64832;45.274;5.880;2022-12-07T13:54:45;7.32;;;4.15;;
76105;SDS011;64832;45.274;5.880;2022-12-07T13:57:15;11.50;;;4.18;;
76105;SDS011;64832;45.274;5.880;2022-12-07T13:59:41;5.22;;;3.83;;
76105;SDS011;64832;45.274;5.880;2022-12-07T14:02:53;5.90;;;3.72;;
76105;SDS011;64832;45.274;5.880;2022-12-07T14:05:10;5.45;;;3.75;;
76105;SDS011;64832;45.274;5.880;2022-12-07T14:08:40;6.05;;;3.95;;
76105;SDS011;64832;45.274;5.880;2022-12-07T14:16:26;4.38;;;3.53;;
76105;SDS011;64832;45.274;5.880;2022-12-07T14:18:53;5.88;;;4.25;;
76105;SDS011;64832;45.274;5.880;2022-12-07T14:21:20;7.07;;;4.25;;
76105;SDS011;64832;45.274;5.880;2022-12-07T14:26:33;6.63;;;3.83;;
76105;SDS011;64832;45.274;5.880;2022-12-07T14:31:49;4.97;;;3.85;;
76105;SDS011;64832;45.274;5.880;2022-12-07T14:34:15;10.88;;;3.85;;
76105;SDS011;64832;45.274;5.880;2022-12-07T14:36:41;5.70;;;4.15;;
76105;SDS011;64832;45.274;5.880;2022-12-07T14:39:06;5.78;;;3.95;;
76105;SDS011;64832;45.274;5.880;2022-12-07T14:41:31;5.78;;;3.85;;
76105;SDS011;64832;45.274;5.880;2022-12-07T14:44:15;9.52;;;3.92;;
76105;SDS011;64832;45.274;5.880;2022-12-07T14:46:41;7.32;;;4.18;;
76105;SDS011;64832;45.274;5.880;2022-12-07T14:49:07;9.10;;;4.55;;
76105;SDS011;64832;45.274;5.880;2022-12-07T14:51:33;9.93;;;4.07;;
76105;SDS011;64832;45.274;5.880;2022-12-07T14:54:01;6.97;;;4.07;;
76105;SDS011;64832;45.274;5.880;2022-12-07T14:56:26;8.75;;;3.85;;
76105;SDS011;64832;45.274;5.880;2022-12-07T14:58:52;6.68;;;3.50;;
76105;SDS011;64832;45.274;5.880;2022-12-07T15:01:18;6.75;;;3.80;;
76105;SDS011;64832;45.274;5.880;2022-12-07T15:03:43;6.78;;;4.45;;
76105;SDS011;64832;45.274;5.880;2022-12-07T15:06:10;8.60;;;4.00;;
76105;SDS011;64832;45.274;5.880;2022-12-07T15:08:39;8.45;;;4.10;;
76105;SDS011;64832;45.274;5.880;2022-12-07T15:11:04;8.07;;;4.10;;
76105;SDS011;64832;45.274;5.880;2022-12-07T15:13:29;9.15;;;4.63;;
76105;SDS011;64832;45.274;5.880;2022-12-07T15:16:13;6.57;;;4.45;;
76105;SDS011;64832;45.274;5.880;2022-12-07T15:18:44;6.82;;;4.57;;
76105;SDS011;64832;45.274;5.880;2022-12-07T15:21:12;7.13;;;4.60;;
76105;SDS011;64832;45.274;5.880;2022-12-07T15:23:39;7.78;;;4.65;;
76105;SDS011;64832;45.274;5.880;2022-12-07T15:26:04;8.02;;;4.43;;
76105;SDS011;64832;45.274;5.880;2022-12-07T15:28:30;6.20;;;4.47;;
76105;SDS011;64832;45.274;5.880;2022-12-07T15:30:55;8.30;;;4.70;;
76105;SDS011;64832;45.274;5.880;2022-12-07T15:33:21;6.68;;;4.45;;
76105;SDS011;64832;45.274;5.880;2022-12-07T15:35:46;7.20;;;4.78;;
76105;SDS011;64832;45.274;5.880;2022-12-07T15:38:11;10.35;;;5.10;;
76105;SDS011;64832;45.274;5.880;2022-12-07T15:40:38;9.70;;;4.60;;
76105;SDS011;64832;45.274;5.880;2022-12-07T15:43:04;9.98;;;4.80;;
76105;SDS011;64832;45.274;5.880;2022-12-07T15:45:29;7.30;;;4.72;;
76105;SDS011;64832;45.274;5.880;2022-12-07T15:47:55;7.95;;;4.82;;
76105;SDS011;64832;45.274;5.880;2022-12-07T15:50:20;9.65;;;5.22;;
76105;SDS011;64832;45.274;5.880;2022-12-07T15:52:46;6.90;;;4.53;;
76105;SDS011;64832;45.274;5.880;2022-12-07T15:55:12;7.28;;;4.95;;
76105;SDS011;64832;45.274;5.880;2022-12-07T15:57:37;6.75;;;5.03;;
76105;SDS011;64832;45.274;5.880;2022-12-07T16:00:04;9.35;;;4.80;;
76105;SDS011;64832;45.274;5.880;2022-12-07T16:02:30;9.23;;;4.70;;
76105;SDS011;64832;45.274;5.880;2022-12-07T16:04:56;13.25;;;5.65;;
76105;SDS011;64832;45.274;5.880;2022-12-07T16:07:21;9.90;;;5.20;;
76105;SDS011;64832;45.274;5.880;2022-12-07T16:09:47;6.85;;;4.10;;
76105;SDS011;64832;45.274;5.880;2022-12-07T16:12:14;4.95;;;3.58;;
76105;SDS011;64832;45.274;5.880;2022-12-07T16:14:40;6.47;;;3.67;;
76105;SDS011;64832;45.274;5.880;2022-12-07T16:17:06;6.82;;;3.95;;
76105;SDS011;64832;45.274;5.880;2022-12-07T16:19:33;7.10;;;3.58;;
76105;SDS011;64832;45.274;5.880;2022-12-07T16:22:00;5.10;;;2.97;;
76105;SDS011;64832;45.274;5.880;2022-12-07T16:24:25;5.53;;;4.03;;
76105;SDS011;64832;45.274;5.880;2022-12-07T16:26:51;5.47;;;3.78;;
76105;SDS011;64832;45.274;5.880;2022-12-07T16:29:17;17.20;;;4.95;;
76105;SDS011;64832;45.274;5.880;2022-12-07T16:31:44;12.45;;;4.47;;
76105;SDS011;64832;45.274;5.880;2022-12-07T16:34:10;17.20;;;4.70;;
76105;SDS011;64832;45.274;5.880;2022-12-07T16:36:35;14.48;;;4.18;;
76105;SDS011;64832;45.274;5.880;2022-12-07T16:39:01;23.63;;;4.80;;
76105;SDS011;64832;45.274;5.880;2022-12-07T16:41:27;17.88;;;4.57;;
76105;SDS011;64832;45.274;5.880;2022-12-07T16:43:53;16.60;;;4.45;;
76105;SDS011;64832;45.274;5.880;2022-12-07T16:46:19;27.13;;;4.63;;
76105;SDS011;64832;45.274;5.880;2022-12-07T16:48:44;18.83;;;6.90;;
76105;SDS011;64832;45.274;5.880;2022-12-07T16:51:10;15.85;;;4.57;;
76105;SDS011;64832;45.274;5.880;2022-12-07T16:53:38;14.25;;;4.55;;
76105;SDS011;64832;45.274;5.880;2022-12-07T16:56:11;16.05;;;4.63;;
76105;SDS011;64832;45.274;5.880;2022-12-07T16:58:38;16.35;;;4.60;;
76105;SDS011;64832;45.274;5.880;2022-12-07T17:01:13;10.82;;;4.95;;
76105;SDS011;64832;45.274;5.880;2022-12-07T17:03:41;14.35;;;4.80;;
76105;SDS011;64832;45.274;5.880;2022-12-07T17:06:14;14.77;;;5.32;;
76105;SDS011;64832;45.274;5.880;2022-12-07T17:08:40;13.63;;;4.70;;
76105;SDS011;64832;45.274;5.880;2022-12-07T17:11:11;11.55;;;4.65;;
76105;SDS011;64832;45.274;5.880;2022-12-07T17:13:38;14.27;;;5.03;;
76105;SDS011;64832;45.274;5.880;2022-12-07T17:16:22;11.98;;;4.57;;
76105;SDS011;64832;45.274;5.880;2022-12-07T17:18:47;10.50;;;4.28;;
76105;SDS011;64832;45.274;5.880;2022-12-07T17:21:13;13.07;;;4.68;;
76105;SDS011;64832;45.274;5.880;2022-12-07T17:23:38;14.20;;;4.43;;
76105;SDS011;64832;45.274;5.880;2022-12-07T17:26:04;17.75;;;4.45;;
76105;SDS011;64832;45.274;5.880;2022-12-07T17:28:34;10.85;;;4.80;;
76105;SDS011;64832;45.274;5.880;2022-12-07T17:31:00;10.77;;;4.15;;
76105;SDS011;64832;45.274;5.880;2022-12-07T17:33:26;11.65;;;4.60;;
76105;SDS011;64832;45.274;5.880;2022-12-07T17:35:51;8.93;;;4.18;;
76105;SDS011;64832;45.274;5.880;2022-12-07T17:38:16;8.30;;;4.35;;
76105;SDS011;64832;45.274;5.880;2022-12-07T17:40:42;13.00;;;4.45;;
76105;SDS011;64832;45.274;5.880;2022-12-07T17:43:07;10.93;;;4.43;;
76105;SDS011;64832;45.274;5.880;2022-12-07T17:45:33;8.90;;;4.13;;
76105;SDS011;64832;45.274;5.880;2022-12-07T17:47:58;9.73;;;4.50;;
76105;SDS011;64832;45.274;5.880;2022-12-07T17:50:24;10.40;;;4.88;;
76105;SDS011;64832;45.274;5.880;2022-12-07T17:53:09;8.93;;;4.22;;
76105;SDS011;64832;45.274;5.880;2022-12-07T17:55:35;13.02;;;4.63;;
76105;SDS011;64832;45.274;5.880;2022-12-07T17:58:01;7.03;;;4.70;;
76105;SDS011;64832;45.274;5.880;2022-12-07T18:00:26;10.50;;;5.00;;
76105;SDS011;64832;45.274;5.880;2022-12-07T18:02:51;11.55;;;4.97;;
76105;SDS011;64832;45.274;5.880;2022-12-07T18:05:17;9.77;;;4.60;;
76105;SDS011;64832;45.274;5.880;2022-12-07T18:07:42;8.88;;;4.43;;
76105;SDS011;64832;45.274;5.880;2022-12-07T18:10:08;9.57;;;4.28;;
76105;SDS011;64832;45.274;5.880;2022-12-07T18:12:35;9.48;;;4.80;;
76105;SDS011;64832;45.274;5.880;2022-12-07T18:15:02;7.88;;;4.30;;
76105;SDS011;64832;45.274;5.880;2022-12-07T18:17:27;7.05;;;4.82;;
76105;SDS011;64832;45.274;5.880;2022-12-07T18:19:53;7.78;;;4.40;;
76105;SDS011;64832;45.274;5.880;2022-12-07T18:22:18;8.57;;;4.50;;
76105;SDS011;64832;45.274;5.880;2022-12-07T18:24:43;6.95;;;4.35;;
76105;SDS011;64832;45.274;5.880;2022-12-07T18:27:09;22.35;;;13.88;;
76105;SDS011;64832;45.274;5.880;2022-12-07T18:29:34;15.82;;;10.50;;
76105;SDS011;64832;45.274;5.880;2022-12-07T18:32:00;13.27;;;8.30;;
76105;SDS011;64832;45.274;5.880;2022-12-07T18:34:25;11.80;;;6.60;;
76105;SDS011;64832;45.274;5.880;2022-12-07T18:36:53;11.80;;;6.32;;
76105;SDS011;64832;45.274;5.880;2022-12-07T18:39:19;13.35;;;7.15;;
76105;SDS011;64832;45.274;5.880;2022-12-07T18:41:46;10.77;;;6.80;;
76105;SDS011;64832;45.274;5.880;2022-12-07T18:44:12;11.48;;;6.72;;
76105;SDS011;64832;45.274;5.880;2022-12-07T18:46:38;10.38;;;6.40;;
76105;SDS011;64832;45.274;5.880;2022-12-07T18:49:05;10.70;;;6.00;;
76105;SDS011;64832;45.274;5.880;2022-12-07T18:51:30;10.73;;;6.38;;
76105;SDS011;64832;45.274;5.880;2022-12-07T18:53:56;10.48;;;6.22;;
76105;SDS011;64832;45.274;5.880;2022-12-07T18:56:23;8.65;;;6.15;;
76105;SDS011;64832;45.274;5.880;2022-12-07T18:58:53;10.18;;;5.97;;
76105;SDS011;64832;45.274;5.880;2022-12-07T19:01:40;10.07;;;6.22;;
76105;SDS011;64832;45.274;5.880;2022-12-07T19:04:06;11.68;;;5.95;;
76105;SDS011;64832;45.274;5.880;2022-12-07T19:06:32;10.13;;;6.35;;
76105;SDS011;64832;45.274;5.880;2022-12-07T19:08:58;10.00;;;6.68;;
76105;SDS011;64832;45.274;5.880;2022-12-07T19:11:25;9.77;;;6.20;;
76105;SDS011;64832;45.274;5.880;2022-12-07T19:14:18;9.43;;;5.97;;
76105;SDS011;64832;45.274;5.880;2022-12-07T19:16:58;9.70;;;6.55;;
76105;SDS011;64832;45.274;5.880;2022-12-07T19:19:30;11.50;;;6.53;;
76105;SDS011;64832;45.274;5.880;2022-12-07T19:21:58;10.65;;;6.07;;
76105;SDS011;64832;45.274;5.880;2022-12-07T19:24:24;8.90;;;5.88;;
76105;SDS011;64832;45.274;5.880;2022-12-07T19:26:51;9.05;;;6.07;;
76105;SDS011;64832;45.274;5.880;2022-12-07T19:29:16;8.38;;;6.35;;
76105;SDS011;64832;45.274;5.880;2022-12-07T19:31:42;9.55;;;5.68;;
76105;SDS011;64832;45.274;5.880;2022-12-07T19:34:10;8.82;;;5.82;;
76105;SDS011;64832;45.274;5.880;2022-12-07T19:36:37;7.10;;;5.32;;
76105;SDS011;64832;45.274;5.880;2022-12-07T19:39:03;9.27;;;6.03;;
76105;SDS011;64832;45.274;5.880;2022-12-07T19:41:29;10.48;;;5.88;;
76105;SDS011;64832;45.274;5.880;2022-12-07T19:43:58;8.27;;;5.90;;
76105;SDS011;64832;45.274;5.880;2022-12-07T19:46:28;8.93;;;5.63;;
76105;SDS011;64832;45.274;5.880;2022-12-07T19:48:55;9.95;;;5.75;;
76105;SDS011;64832;45.274;5.880;2022-12-07T19:51:21;7.70;;;5.60;;
76105;SDS011;64832;45.274;5.880;2022-12-07T19:53:47;8.65;;;6.10;;
76105;SDS011;64832;45.274;5.880;2022-12-07T19:56:16;9.25;;;5.43;;
76105;SDS011;64832;45.274;5.880;2022-12-07T19:58:43;9.20;;;6.20;;
76105;SDS011;64832;45.274;5.880;2022-12-07T20:01:09;9.85;;;5.85;;
76105;SDS011;64832;45.274;5.880;2022-12-07T20:03:34;8.00;;;5.28;;
76105;SDS011;64832;45.274;5.880;2022-12-07T20:06:00;9.50;;;6.07;;
76105;SDS011;64832;45.274;5.880;2022-12-07T20:08:25;10.95;;;5.78;;
76105;SDS011;64832;45.274;5.880;2022-12-07T20:10:51;8.48;;;6.32;;
76105;SDS011;64832;45.274;5.880;2022-12-07T20:13:17;9.80;;;6.28;;
76105;SDS011;64832;45.274;5.880;2022-12-07T20:15:53;10.68;;;6.25;;
76105;SDS011;64832;45.274;5.880;2022-12-07T20:18:19;8.27;;;5.85;;
76105;SDS011;64832;45.274;5.880;2022-12-07T20:20:55;7.28;;;5.38;;
76105;SDS011;64832;45.274;5.880;2022-12-07T20:23:22;8.38;;;5.80;;
76105;SDS011;64832;45.274;5.880;2022-12-07T20:25:51;8.90;;;6.13;;
76105;SDS011;64832;45.274;5.880;2022-12-07T20:28:17;9.55;;;6.60;;
76105;SDS011;64832;45.274;5.880;2022-12-07T20:30:49;10.63;;;6.60;;
76105;SDS011;64832;45.274;5.880;2022-12-07T20:33:17;10.63;;;6.78;;
76105;SDS011;64832;45.274;5.880;2022-12-07T20:35:43;8.68;;;6.82;;
76105;SDS011;64832;45.274;5.880;2022-12-07T20:38:09;8.50;;;6.15;;
76105;SDS011;64832;45.274;5.880;2022-12-07T20:40:35;9.40;;;6.72;;
76105;SDS011;64832;45.274;5.880;2022-12-07T20:43:01;10.55;;;6.43;;
76105;SDS011;64832;45.274;5.880;2022-12-07T20:45:27;10.57;;;6.90;;
76105;SDS011;64832;45.274;5.880;2022-12-07T20:47:53;9.95;;;6.00;;
76105;SDS011;64832;45.274;5.880;2022-12-07T20:50:18;9.27;;;5.75;;
76105;SDS011;64832;45.274;5.880;2022-12-07T20:52:44;8.40;;;6.05;;
76105;SDS011;64832;45.274;5.880;2022-12-07T20:55:09;8.43;;;6.25;;
76105;SDS011;64832;45.274;5.880;2022-12-07T20:57:34;8.88;;;6.32;;
76105;SDS011;64832;45.274;5.880;2022-12-07T21:00:00;7.72;;;6.50;;
76105;SDS011;64832;45.274;5.880;2022-12-07T21:02:26;9.65;;;6.57;;
76105;SDS011;64832;45.274;5.880;2022-12-07T21:04:51;8.07;;;6.43;;
76105;SDS011;64832;45.274;5.880;2022-12-07T21:07:16;11.07;;;7.18;;
76105;SDS011;64832;45.274;5.880;2022-12-07T21:09:46;8.73;;;5.88;;
76105;SDS011;64832;45.274;5.880;2022-12-07T21:12:11;14.88;;;7.25;;
76105;SDS011;64832;45.274;5.880;2022-12-07T21:14:41;11.85;;;7.10;;
76105;SDS011;64832;45.274;5.880;2022-12-07T21:17:07;18.00;;;6.65;;
76105;SDS011;64832;45.274;5.880;2022-12-07T21:19:33;11.50;;;7.00;;
76105;SDS011;64832;45.274;5.880;2022-12-07T21:21:59;19.60;;;6.88;;
76105;SDS011;64832;45.274;5.880;2022-12-07T21:24:24;17.58;;;7.35;;
76105;SDS011;64832;45.274;5.880;2022-12-07T21:26:49;14.63;;;6.75;;
76105;SDS011;64832;45.274;5.880;2022-12-07T21:29:15;13.40;;;6.55;;
76105;SDS011;64832;45.274;5.880;2022-12-07T21:31:40;16.85;;;6.82;;
76105;SDS011;64832;45.274;5.880;2022-12-07T21:34:06;10.95;;;6.20;;
76105;SDS011;64832;45.274;5.880;2022-12-07T21:36:32;12.00;;;6.47;;
76105;SDS011;64832;45.274;5.880;2022-12-07T21:38:58;14.23;;;6.47;;
76105;SDS011;64832;45.274;5.880;2022-12-07T21:41:25;11.48;;;6.43;;
76105;SDS011;64832;45.274;5.880;2022-12-07T21:43:52;9.38;;;6.32;;
76105;SDS011;64832;45.274;5.880;2022-12-07T21:46:18;11.55;;;6.95;;
76105;SDS011;64832;45.274;5.880;2022-12-07T21:48:48;11.48;;;6.47;;
76105;SDS011;64832;45.274;5.880;2022-12-07T21:51:18;9.30;;;6.05;;
76105;SDS011;64832;45.274;5.880;2022-12-07T21:53:45;10.07;;;6.13;;
76105;SDS011;64832;45.274;5.880;2022-12-07T21:56:14;9.60;;;5.57;;
76105;SDS011;64832;45.274;5.880;2022-12-07T21:58:41;12.45;;;6.10;;
76105;SDS011;64832;45.274;5.880;2022-12-07T22:01:13;10.35;;;5.93;;
76105;SDS011;64832;45.274;5.880;2022-12-07T22:03:49;9.77;;;6.03;;
76105;SDS011;64832;45.274;5.880;2022-12-07T22:06:16;10.05;;;6.28;;
76105;SDS011;64832;45.274;5.880;2022-12-07T22:08:43;10.65;;;6.03;;
76105;SDS011;64832;45.274;5.880;2022-12-07T22:11:09;10.18;;;5.70;;
76105;SDS011;64832;45.274;5.880;2022-12-07T22:13:36;8.98;;;6.03;;
76105;SDS011;64832;45.274;5.880;2022-12-07T22:16:21;8.05;;;5.57;;
76105;SDS011;64832;45.274;5.880;2022-12-07T22:18:47;9.50;;;5.63;;
76105;SDS011;64832;45.274;5.880;2022-12-07T22:21:12;7.82;;;5.80;;
76105;SDS011;64832;45.274;5.880;2022-12-07T22:23:37;11.65;;;6.63;;
76105;SDS011;64832;45.274;5.880;2022-12-07T22:26:03;9.82;;;6.18;;
76105;SDS011;64832;45.274;5.880;2022-12-07T22:28:32;9.57;;;6.35;;
76105;SDS011;64832;45.274;5.880;2022-12-07T22:31:01;11.85;;;6.30;;
76105;SDS011;64832;45.274;5.880;2022-12-07T22:33:31;7.45;;;5.60;;
76105;SDS011;64832;45.274;5.880;2022-12-07T22:35:57;7.65;;;5.82;;
76105;SDS011;64832;45.274;5.880;2022-12-07T22:38:23;9.88;;;6.32;;
76105;SDS011;64832;45.274;5.880;2022-12-07T22:40:49;8.10;;;5.70;;
76105;SDS011;64832;45.274;5.880;2022-12-07T22:43:14;10.68;;;6.00;;
76105;SDS011;64832;45.274;5.880;2022-12-07T22:45:40;8.52;;;5.68;;
76105;SDS011;64832;45.274;5.880;2022-12-07T22:48:05;8.65;;;5.63;;
76105;SDS011;64832;45.274;5.880;2022-12-07T22:50:31;8.80;;;5.93;;
76105;SDS011;64832;45.274;5.880;2022-12-07T22:52:57;9.02;;;5.78;;